CheckWX is a tool to help pilots better visualize weather data.  It is not intended as a substitute for an official pre-flight weather briefing.

17:35:14 UTC

EGVP TAF
Middle Wallop Airfield Airport
Middle Wallop, United Kingdom
TAF EGVP 181354Z 1815/1824 07005KT 9999 FEW014 SCT045 PROB30 TEMPO 1815/1824 7000 RA SHRA SCT014 PROB40 1823/1824 2000 BR BKN002

Jun-18@
15:00 UTC

Jun-18 @ 15:00 UTC

Jun-19@
00:00 UTC

Jun-19 @ 00:00 UTC

TAF EGVP 181354Z 1815/1824 07005KT 9999 FEW014 SCT045
Wind
  • 070° at 5 KTS
Cloud Levels
  • Few at 1,400' AGL
  • Scattered at 4,500' AGL

Jun-18@
15:00 UTC

Jun-18 @ 15:00 UTC

Jun-19@
00:00 UTC

Jun-19 @ 00:00 UTC

PROB30 TEMPO 1815/1824 7000 RA SHRA SCT014

Temporary - 30% Likelihood

Temporary - 30% Likelihood during this time.

Conditions
Rain, Rain
Cloud Levels
  • Scattered at 1,400' AGL

Jun-18@
23:00 UTC

Jun-18 @ 23:00 UTC

Jun-19@
00:00 UTC

Jun-19 @ 00:00 UTC

PROB40 1823/1824 2000 BR BKN002

Probable - 40% Likelihood

Probable - 40% Likelihood during this time.

Conditions
Mist
Cloud Levels
  • Broken at 200' AGL